Hafnia Sunda — 9V3281 — position and weather

sailwx.info

Track history (hours):
 
Tides and Currents Weather Stations Pressure Air Temp Water Temp Dewpoint Dewpoint Depression Visibility Wind Speed Wind Dir Waves Ship Positions

Hafnia Sunda

Last reported at 2018-Feb-25 21:30 UTC. Time now 2018-Feb-25 21:56 UTC.
Position N 59°35' E 022°60'.

Length 184 m; draft 10.4 m.

Type: Tanker. MMSI: 566579000.

Date/timePositionNaut miles runAvg speedWind from/ knotsBaromVisibWave heightAir tempDewpointWater temp
2018-Feb-25 21:30N 59°35' E 022°60'613.0
2018-Feb-25 21:01N 59°37' E 023°12'613.0
2018-Feb-25 20:30N 59°39' E 023°24'612.5
2018-Feb-25 20:00N 59°40' E 023°36'612.7
2018-Feb-25 19:31N 59°42' E 023°48'612.6
2018-Feb-25 19:00N 59°44' E 024°00'712.6
2018-Feb-25 18:29N 59°46' E 024°13'612.1
2018-Feb-25 17:59N 59°47' E 024°24'612.7
2018-Feb-25 17:30N 59°49' E 024°36'612.5
2018-Feb-25 17:00N 59°50' E 024°48'612.4
2018-Feb-25 16:30N 59°51' E 025°01'812.2
2018-Feb-25 15:52N 59°52' E 025°16'411.9
2018-Feb-25 15:30N 59°53' E 025°24'611.6
2018-Feb-25 15:00N 59°54' E 025°36'1911.1
2018-Feb-25 13:19N 59°58' E 026°12'311.2
2018-Feb-25 13:00N 59°59' E 026°19'612.2
2018-Feb-25 12:30N 60°01' E 026°30'611.2
2018-Feb-25 12:00N 60°01' E 026°41'611.6
2018-Feb-25 11:30N 60°00' E 026°53'611.5
2018-Feb-25 11:00N 59°59' E 027°04'510.9
2018-Feb-25 10:30N 60°02' E 027°14'510.3
2018-Feb-25 10:00N 60°04' E 027°23'5 9.3
2018-Feb-25 09:31N 60°06' E 027°31'510.2
2018-Feb-25 09:01N 60°09' E 027°40'510.6
2018-Feb-25 08:31N 60°11' E 027°51'5 9.8
2018-Feb-25 08:00N 60°10' E 028°01'5 9.7
2018-Feb-25 07:31N 60°09' E 028°10'0 0.4
2018-Feb-25 07:00N 60°09' E 028°10'0 0.1
2018-Feb-25 06:31N 60°09' E 028°10'0 0.0
2018-Feb-25 06:01N 60°09' E 028°10'0 0.0
2018-Feb-25 05:30N 60°09' E 028°10'0 0.0
2018-Feb-25 05:00N 60°09' E 028°10'0 0.0
2018-Feb-25 04:31N 60°09' E 028°10'0 0.0
2018-Feb-25 04:00N 60°09' E 028°10'0 0.0
2018-Feb-25 03:30N 60°09' E 028°10'0 0.0
2018-Feb-25 03:00N 60°09' E 028°10'0 0.0
2018-Feb-25 02:30N 60°09' E 028°10'0 0.0
2018-Feb-25 02:00N 60°09' E 028°10'0 0.0
2018-Feb-25 01:30N 60°09' E 028°10'0 0.0
2018-Feb-25 01:00N 60°09' E 028°10'0 0.0
2018-Feb-25 00:30N 60°09' E 028°10'0 0.0
2018-Feb-25 00:00N 60°09' E 028°10'0 0.0
2018-Feb-24 23:30N 60°09' E 028°10'0 0.0
2018-Feb-24 23:00N 60°09' E 028°10'0 0.0
2018-Feb-24 22:30N 60°09' E 028°10'0 0.0
2018-Feb-24 22:00N 60°09' E 028°10'0 0.0
2018-Feb-24 21:30N 60°09' E 028°10'0 0.0
2018-Feb-24 21:00N 60°09' E 028°10'3 5.4
2018-Feb-24 20:31N 60°08' E 028°15'4 8.1
2018-Feb-24 20:00N 60°08' E 028°23'5 9.3
2018-Feb-24 19:31N 60°09' E 028°32'510.6
2018-Feb-24 19:01N 60°10' E 028°42'2 4.5
2018-Feb-24 18:30N 60°12' E 028°45'4 7.5
2018-Feb-24 18:00N 60°16' E 028°47'3 7.0
2018-Feb-24 17:30N 60°19' E 028°44'0 0.6
2018-Feb-24 17:00N 60°19' E 028°44'0 0.0
2018-Feb-24 16:31N 60°19' E 028°44'0 0.0
2018-Feb-24 16:00N 60°19' E 028°44'0 0.3
2018-Feb-24 15:30N 60°19' E 028°44'0 0.0
2018-Feb-24 15:00N 60°19' E 028°44'0 0.0
2018-Feb-24 14:30N 60°19' E 028°44'0 0.0
2018-Feb-24 13:48N 60°19' E 028°44'0 0.0
2018-Feb-24 13:27N 60°19' E 028°44'0 0.0
2018-Feb-24 12:57N 60°19' E 028°44'0 0.0
2018-Feb-24 12:30N 60°19' E 028°44'0 0.0
2018-Feb-24 11:57N 60°19' E 028°44'0 0.0
2018-Feb-24 11:24N 60°19' E 028°44'0 0.0
2018-Feb-24 11:00N 60°19' E 028°44'0 0.0
2018-Feb-24 10:12N 60°19' E 028°44'0 0.0
2018-Feb-24 10:00N 60°19' E 028°44'0 0.0
2018-Feb-24 09:21N 60°19' E 028°44'0 0.0
2018-Feb-24 08:51N 60°19' E 028°44'0 0.0
2018-Feb-24 08:30N 60°19' E 028°44'0 0.0
2018-Feb-24 07:57N 60°19' E 028°44'0 0.0
2018-Feb-24 07:30N 60°19' E 028°44'0 0.0
2018-Feb-24 06:48N 60°19' E 028°44'0 0.0
2018-Feb-24 06:30N 60°19' E 028°44'0 0.0
2018-Feb-24 05:48N 60°19' E 028°44'0 0.0
2018-Feb-24 05:30N 60°19' E 028°44'0 0.0
2018-Feb-24 05:00N 60°19' E 028°44'0 0.0
2018-Feb-24 04:30N 60°19' E 028°44'0 0.0
2018-Feb-24 04:00N 60°19' E 028°44'0 0.0
2018-Feb-24 03:30N 60°19' E 028°44'0 0.0
2018-Feb-24 02:54N 60°19' E 028°44'0 0.0
2018-Feb-24 02:30N 60°19' E 028°44'0 0.0
2018-Feb-24 02:00N 60°19' E 028°44'0 0.0
2018-Feb-24 01:30N 60°19' E 028°44'0 0.0
2018-Feb-24 00:57N 60°19' E 028°44'0 0.0
2018-Feb-24 00:30N 60°19' E 028°44'0 0.0
2018-Feb-23 23:41N 60°19' E 028°44'0 0.0
2018-Feb-23 23:30N 60°19' E 028°44'0 0.0
2018-Feb-23 22:22N 60°19' E 028°44'0 0.0
2018-Feb-23 21:57N 60°19' E 028°44'0 0.0
2018-Feb-23 21:28N 60°19' E 028°44'0 0.0
2018-Feb-23 20:56N 60°19' E 028°44'0 0.0
2018-Feb-23 20:21N 60°19' E 028°44'0 0.0
2018-Feb-23 20:00N 60°19' E 028°44'0 0.0
2018-Feb-23 19:30N 60°19' E 028°44'0 0.0
2018-Feb-23 19:00N 60°19' E 028°44'0 0.0
2018-Feb-23 18:24N 60°19' E 028°44'0 0.0
2018-Feb-23 18:00N 60°19' E 028°44'0 0.0
2018-Feb-23 17:30N 60°19' E 028°44'0 0.0
2018-Feb-23 17:00N 60°19' E 028°44'0 0.0
2018-Feb-23 16:30N 60°19' E 028°44'0 0.0
2018-Feb-23 16:00N 60°19' E 028°44'0 0.0
2018-Feb-23 15:30N 60°19' E 028°44'0 0.1
2018-Feb-23 15:01N 60°19' E 028°44'0 1.0
2018-Feb-23 14:30N 60°19' E 028°44'4 7.3
2018-Feb-23 14:00N 60°16' E 028°48'4 8.1
2018-Feb-23 13:30N 60°12' E 028°45'2 4.5
2018-Feb-23 12:59N 60°10' E 028°42'5 9.5
2018-Feb-23 12:29N 60°09' E 028°32'4 9.1
2018-Feb-23 12:00N 60°08' E 028°24'4 8.0
2018-Feb-23 11:30N 60°07' E 028°16'4 8.3
2018-Feb-23 11:00N 60°08' E 028°08'510.0
2018-Feb-23 10:30N 60°09' E 027°58'510.1
2018-Feb-23 10:00N 60°10' E 027°48'5 9.7
2018-Feb-23 09:30N 60°08' E 027°39'5 9.6
2018-Feb-23 09:00N 60°06' E 027°31'5 9.5
2018-Feb-23 08:30N 60°03' E 027°22'5 9.3
2018-Feb-23 08:00N 60°01' E 027°15'510.2
2018-Feb-23 07:30N 59°58' E 027°06'610.7
2018-Feb-23 06:59N 59°58' E 026°55'5 9.9
2018-Feb-23 06:31N 59°59' E 026°45'5 9.4
2018-Feb-23 06:00N 59°59' E 026°36'510.6
2018-Feb-23 05:30N 59°57' E 026°26'611.1
2018-Feb-23 05:01N 59°56' E 026°15'1310.8
2018-Feb-23 03:49N 59°53' E 025°50'311.3
2018-Feb-23 03:30N 59°52' E 025°43'511.0
2018-Feb-23 03:00N 59°50' E 025°33'711.0
2018-Feb-23 02:21N 59°49' E 025°19'411.1
2018-Feb-23 02:00N 59°48' E 025°12'510.6
2018-Feb-23 01:30N 59°47' E 025°01'510.8
2018-Feb-23 01:01N 59°46' E 024°51'611.4
2018-Feb-23 00:30N 59°44' E 024°40'611.6
2018-Feb-23 00:00N 59°43' E 024°29'612.3
2018-Feb-22 23:30N 59°37' E 024°23'611.9
2018-Feb-22 23:00N 59°32' E 024°27'4 7.6
2018-Feb-22 22:31N 59°29' E 024°32'0 0.2
2018-Feb-22 21:58N 59°29' E 024°32'0 0.0
2018-Feb-22 21:28N 59°29' E 024°32'0 0.1
2018-Feb-22 20:58N 59°29' E 024°32'0 0.0
2018-Feb-22 20:28N 59°29' E 024°32'0 0.0
2018-Feb-22 19:58N 59°29' E 024°32'0 0.0
2018-Feb-22 19:28N 59°29' E 024°32'0 0.0
2018-Feb-22 18:58N 59°29' E 024°32'0 0.0
2018-Feb-22 18:28N 59°29' E 024°32'0 0.0
2018-Feb-22 17:58N 59°29' E 024°32'0 0.1
2018-Feb-22 17:28N 59°29' E 024°32'0 0.1
2018-Feb-22 16:58N 59°29' E 024°32'0 0.0
2018-Feb-22 16:28N 59°29' E 024°32'0 0.0
2018-Feb-22 15:58N 59°29' E 024°32'0 0.1
2018-Feb-22 15:28N 59°29' E 024°32'0 1.0
2018-Feb-22 15:00N 59°29' E 024°32'510.0
2018-Feb-22 14:30N 59°32' E 024°23'510.6
2018-Feb-22 14:00N 59°34' E 024°13'510.6
2018-Feb-22 13:30N 59°36' E 024°04'510.3
2018-Feb-22 13:01N 59°38' E 023°54'510.8
2018-Feb-22 12:30N 59°37' E 023°44'611.1
2018-Feb-22 12:00N 59°35' E 023°33'611.0
2018-Feb-22 11:30N 59°33' E 023°23'510.7
2018-Feb-22 11:00N 59°32' E 023°13'510.8
2018-Feb-22 10:31N 59°30' E 023°03'29510.1
2018-Feb-21 05:13N 55°49' E 016°58'2 9.8
2018-Feb-21 05:00N 55°48' E 016°55'5 9.7
2018-Feb-21 04:30N 55°47' E 016°46'5 9.8
2018-Feb-21 04:00N 55°46' E 016°38'5 9.9
2018-Feb-21 03:30N 55°45' E 016°29'5 9.9
2018-Feb-21 03:00N 55°44' E 016°21'510.0
2018-Feb-21 02:30N 55°43' E 016°12'5 9.7
2018-Feb-21 02:00N 55°41' E 016°04'5 9.7
2018-Feb-21 01:30N 55°40' E 015°55'5 9.8
2018-Feb-21 01:00N 55°39' E 015°47'5 9.8
2018-Feb-21 00:30N 55°38' E 015°38'5 9.9
2018-Feb-21 00:00N 55°37' E 015°30'510.0
2018-Feb-20 23:30N 55°35' E 015°22'5 9.9
2018-Feb-20 23:00N 55°33' E 015°14'5 9.7
2018-Feb-20 22:30N 55°31' E 015°06'5 9.5
2018-Feb-20 22:00N 55°29' E 014°58'5 9.4
2018-Feb-20 21:30N 55°27' E 014°51'5 9.2
2018-Feb-20 21:00N 55°25' E 014°43'5 9.0
2018-Feb-20 20:29N 55°22' E 014°37'5 9.3
2018-Feb-20 20:00N 55°18' E 014°32'5 9.4
2018-Feb-20 19:30N 55°15' E 014°27'5 9.5
2018-Feb-20 18:59N 55°11' E 014°21'4 8.1
2018-Feb-20 18:30N 55°09' E 014°15'5 9.5
2018-Feb-20 17:59N 55°10' E 014°07'7 9.4
2018-Feb-20 17:12N 55°09' E 013°54'8 9.6
2018-Feb-20 16:22N 55°10' E 013°40'18 9.6
2018-Feb-20 14:28N 55°11' E 013°08'5 9.7
2018-Feb-20 14:00N 55°13' E 013°01'5 9.8
2018-Feb-20 13:30N 55°15' E 012°53'5 9.7
2018-Feb-20 13:00N 55°16' E 012°45'5 9.1
2018-Feb-20 12:30N 55°18' E 012°38'5 9.7
2018-Feb-20 12:00N 55°23' E 012°39'5 9.9
2018-Feb-20 11:30N 55°28' E 012°41'4 8.7
2018-Feb-20 11:00N 55°32' E 012°45'5 9.1
2018-Feb-20 10:30N 55°35' E 012°50'4 8.1
2018-Feb-20 10:00N 55°38' E 012°55'511.0
2018-Feb-20 09:30N 55°43' E 012°52'612.9
2018-Feb-20 09:00N 55°49' E 012°47'612.6
2018-Feb-20 08:30N 55°55' E 012°44'612.6
2018-Feb-20 08:00N 56°01' E 012°40'510.0
2018-Feb-20 07:30N 56°05' E 012°35'4 8.4
2018-Feb-20 07:00N 56°08' E 012°29'4 8.2
2018-Feb-20 06:30N 56°10' E 012°23'5 9.0
2018-Feb-20 06:00N 56°13' E 012°16'4 9.0
2018-Feb-20 05:30N 56°15' E 012°10'4 8.8
2018-Feb-20 05:00N 56°18' E 012°03'53 8.6
2018-Feb-19 22:51N 57°08' E 011°36'4 9.1
2018-Feb-19 22:24N 57°12' E 011°34'4 9.0
2018-Feb-19 22:00N 57°15' E 011°31'5 9.1
2018-Feb-19 21:30N 57°19' E 011°28'4 8.8
2018-Feb-19 21:00N 57°24' E 011°25'4 8.5
2018-Feb-19 20:30N 57°28' E 011°22'4 8.3
2018-Feb-19 20:00N 57°31' E 011°17'4 8.2
2018-Feb-19 19:30N 57°34' E 011°12'4 8.1
2018-Feb-19 19:00N 57°36' E 011°06'4 8.2
2018-Feb-19 18:30N 57°39' E 011°00'4 8.1
2018-Feb-19 18:00N 57°42' E 010°55'4 8.3
2018-Feb-19 17:30N 57°45' E 010°49'4 8.0
2018-Feb-19 17:00N 57°47' E 010°43'4 8.2
2018-Feb-19 16:30N 57°47' E 010°35'4 9.0
2018-Feb-19 16:00N 57°47' E 010°27'5 9.3
2018-Feb-19 15:30N 57°46' E 010°18'100 8.7
2018-Feb-19 03:58N 57°01' E 007°32'4 9.5
2018-Feb-19 03:30N 56°57' E 007°29'5 9.4
2018-Feb-19 02:59N 56°52' E 007°26'5 9.4
2018-Feb-19 02:30N 56°48' E 007°22'330 9.5
2018-Feb-17 15:49N 51°59' E 002°48'1010.1
2018-Feb-17 14:49N 51°54' E 003°03'510.1
2018-Feb-17 14:18N 51°50' E 003°09'310.2
2018-Feb-17 13:59N 51°48' E 003°12'5 9.9
2018-Feb-17 13:30N 51°44' E 003°17'611.6
2018-Feb-17 13:00N 51°39' E 003°20'612.0
2018-Feb-17 12:30N 51°34' E 003°25'611.3
2018-Feb-17 12:00N 51°29' E 003°30'5 9.3
2018-Feb-17 11:30N 51°26' E 003°36'4 8.8
2018-Feb-17 11:00N 51°25' E 003°43'611.6
2018-Feb-17 10:30N 51°21' E 003°50'612.2
2018-Feb-17 10:00N 51°25' E 003°57'4 7.8
2018-Feb-17 09:31N 51°23' E 004°03'612.4
2018-Feb-17 09:00N 51°23' E 004°13'4 7.7
2018-Feb-17 08:30N 51°21' E 004°17'0 0.0
2018-Feb-17 08:00N 51°21' E 004°17'0 0.0
2018-Feb-17 07:31N 51°21' E 004°17'1 1.1
2018-Feb-17 07:00N 51°21' E 004°18'0 0.0
2018-Feb-16 19:48N 51°21' E 004°18'0 0.0
2018-Feb-16 19:21N 51°21' E 004°18'0 0.0
2018-Feb-16 16:21N 51°21' E 004°18'0 0.0
2018-Feb-16 10:18N 51°21' E 004°18'0 0.0
2018-Feb-16 09:51N 51°21' E 004°18'0 0.0
2018-Feb-16 09:21N 51°21' E 004°18'0 0.0
2018-Feb-16 08:54N 51°21' E 004°18'0 0.0
2018-Feb-16 03:48N 51°21' E 004°18'0 0.0
2018-Feb-16 03:21N 51°21' E 004°18'0 0.0
2018-Feb-16 01:24N 51°21' E 004°18'0 0.0
2018-Feb-16 00:30N 51°21' E 004°18'0 0.0
2018-Feb-16 00:00N 51°21' E 004°18'  
Track history (hours):
 
Tides and Currents Weather Stations Pressure Air Temp Water Temp Dewpoint Dewpoint Depression Visibility Wind Speed Wind Dir Waves Ship Positions

Hafnia Sunda

Last reported at 2018-Feb-25 21:30 UTC. Time now 2018-Feb-25 21:56 UTC.
Position N 59°35' E 022°60'.

Length 184 m; draft 10.4 m.

Type: Tanker. MMSI: 566579000.

Date/timePositionNaut miles runAvg speedWind from/ knotsBaromVisibWave heightAir tempDewpointWater temp
2018-Feb-25 21:30N 59°35' E 022°60'613.0
2018-Feb-25 21:01N 59°37' E 023°12'613.0
2018-Feb-25 20:30N 59°39' E 023°24'612.5
2018-Feb-25 20:00N 59°40' E 023°36'612.7
2018-Feb-25 19:31N 59°42' E 023°48'612.6
2018-Feb-25 19:00N 59°44' E 024°00'712.6
2018-Feb-25 18:29N 59°46' E 024°13'612.1
2018-Feb-25 17:59N 59°47' E 024°24'612.7
2018-Feb-25 17:30N 59°49' E 024°36'612.5
2018-Feb-25 17:00N 59°50' E 024°48'612.4
2018-Feb-25 16:30N 59°51' E 025°01'812.2
2018-Feb-25 15:52N 59°52' E 025°16'411.9
2018-Feb-25 15:30N 59°53' E 025°24'611.6
2018-Feb-25 15:00N 59°54' E 025°36'1911.1
2018-Feb-25 13:19N 59°58' E 026°12'311.2
2018-Feb-25 13:00N 59°59' E 026°19'612.2
2018-Feb-25 12:30N 60°01' E 026°30'611.2
2018-Feb-25 12:00N 60°01' E 026°41'611.6
2018-Feb-25 11:30N 60°00' E 026°53'611.5
2018-Feb-25 11:00N 59°59' E 027°04'510.9
2018-Feb-25 10:30N 60°02' E 027°14'510.3
2018-Feb-25 10:00N 60°04' E 027°23'5 9.3
2018-Feb-25 09:31N 60°06' E 027°31'510.2
2018-Feb-25 09:01N 60°09' E 027°40'510.6
2018-Feb-25 08:31N 60°11' E 027°51'5 9.8
2018-Feb-25 08:00N 60°10' E 028°01'5 9.7
2018-Feb-25 07:31N 60°09' E 028°10'0 0.4
2018-Feb-25 07:00N 60°09' E 028°10'0 0.1
2018-Feb-25 06:31N 60°09' E 028°10'0 0.0
2018-Feb-25 06:01N 60°09' E 028°10'0 0.0
2018-Feb-25 05:30N 60°09' E 028°10'0 0.0
2018-Feb-25 05:00N 60°09' E 028°10'0 0.0
2018-Feb-25 04:31N 60°09' E 028°10'0 0.0
2018-Feb-25 04:00N 60°09' E 028°10'0 0.0
2018-Feb-25 03:30N 60°09' E 028°10'0 0.0
2018-Feb-25 03:00N 60°09' E 028°10'0 0.0
2018-Feb-25 02:30N 60°09' E 028°10'0 0.0
2018-Feb-25 02:00N 60°09' E 028°10'0 0.0
2018-Feb-25 01:30N 60°09' E 028°10'0 0.0
2018-Feb-25 01:00N 60°09' E 028°10'0 0.0
2018-Feb-25 00:30N 60°09' E 028°10'0 0.0
2018-Feb-25 00:00N 60°09' E 028°10'0 0.0
2018-Feb-24 23:30N 60°09' E 028°10'0 0.0
2018-Feb-24 23:00N 60°09' E 028°10'0 0.0
2018-Feb-24 22:30N 60°09' E 028°10'0 0.0
2018-Feb-24 22:00N 60°09' E 028°10'0 0.0
2018-Feb-24 21:30N 60°09' E 028°10'0 0.0
2018-Feb-24 21:00N 60°09' E 028°10'3 5.4
2018-Feb-24 20:31N 60°08' E 028°15'4 8.1
2018-Feb-24 20:00N 60°08' E 028°23'5 9.3
2018-Feb-24 19:31N 60°09' E 028°32'510.6
2018-Feb-24 19:01N 60°10' E 028°42'2 4.5
2018-Feb-24 18:30N 60°12' E 028°45'4 7.5
2018-Feb-24 18:00N 60°16' E 028°47'3 7.0
2018-Feb-24 17:30N 60°19' E 028°44'0 0.6
2018-Feb-24 17:00N 60°19' E 028°44'0 0.0
2018-Feb-24 16:31N 60°19' E 028°44'0 0.0
2018-Feb-24 16:00N 60°19' E 028°44'0 0.3
2018-Feb-24 15:30N 60°19' E 028°44'0 0.0
2018-Feb-24 15:00N 60°19' E 028°44'0 0.0
2018-Feb-24 14:30N 60°19' E 028°44'0 0.0
2018-Feb-24 13:48N 60°19' E 028°44'0 0.0
2018-Feb-24 13:27N 60°19' E 028°44'0 0.0
2018-Feb-24 12:57N 60°19' E 028°44'0 0.0
2018-Feb-24 12:30N 60°19' E 028°44'0 0.0
2018-Feb-24 11:57N 60°19' E 028°44'0 0.0
2018-Feb-24 11:24N 60°19' E 028°44'0 0.0
2018-Feb-24 11:00N 60°19' E 028°44'0 0.0
2018-Feb-24 10:12N 60°19' E 028°44'0 0.0
2018-Feb-24 10:00N 60°19' E 028°44'0 0.0
2018-Feb-24 09:21N 60°19' E 028°44'0 0.0
2018-Feb-24 08:51N 60°19' E 028°44'0 0.0
2018-Feb-24 08:30N 60°19' E 028°44'0 0.0
2018-Feb-24 07:57N 60°19' E 028°44'0 0.0
2018-Feb-24 07:30N 60°19' E 028°44'0 0.0
2018-Feb-24 06:48N 60°19' E 028°44'0 0.0
2018-Feb-24 06:30N 60°19' E 028°44'0 0.0
2018-Feb-24 05:48N 60°19' E 028°44'0 0.0
2018-Feb-24 05:30N 60°19' E 028°44'0 0.0
2018-Feb-24 05:00N 60°19' E 028°44'0 0.0
2018-Feb-24 04:30N 60°19' E 028°44'0 0.0
2018-Feb-24 04:00N 60°19' E 028°44'0 0.0
2018-Feb-24 03:30N 60°19' E 028°44'0 0.0
2018-Feb-24 02:54N 60°19' E 028°44'0 0.0
2018-Feb-24 02:30N 60°19' E 028°44'0 0.0
2018-Feb-24 02:00N 60°19' E 028°44'0 0.0
2018-Feb-24 01:30N 60°19' E 028°44'0 0.0
2018-Feb-24 00:57N 60°19' E 028°44'0 0.0
2018-Feb-24 00:30N 60°19' E 028°44'0 0.0
2018-Feb-23 23:41N 60°19' E 028°44'0 0.0
2018-Feb-23 23:30N 60°19' E 028°44'0 0.0
2018-Feb-23 22:22N 60°19' E 028°44'0 0.0
2018-Feb-23 21:57N 60°19' E 028°44'0 0.0
2018-Feb-23 21:28N 60°19' E 028°44'0 0.0
2018-Feb-23 20:56N 60°19' E 028°44'0 0.0
2018-Feb-23 20:21N 60°19' E 028°44'0 0.0
2018-Feb-23 20:00N 60°19' E 028°44'0 0.0
2018-Feb-23 19:30N 60°19' E 028°44'0 0.0
2018-Feb-23 19:00N 60°19' E 028°44'0 0.0
2018-Feb-23 18:24N 60°19' E 028°44'0 0.0
2018-Feb-23 18:00N 60°19' E 028°44'0 0.0
2018-Feb-23 17:30N 60°19' E 028°44'0 0.0
2018-Feb-23 17:00N 60°19' E 028°44'0 0.0
2018-Feb-23 16:30N 60°19' E 028°44'0 0.0
2018-Feb-23 16:00N 60°19' E 028°44'0 0.0
2018-Feb-23 15:30N 60°19' E 028°44'0 0.1
2018-Feb-23 15:01N 60°19' E 028°44'0 1.0
2018-Feb-23 14:30N 60°19' E 028°44'4 7.3
2018-Feb-23 14:00N 60°16' E 028°48'4 8.1
2018-Feb-23 13:30N 60°12' E 028°45'2 4.5
2018-Feb-23 12:59N 60°10' E 028°42'5 9.5
2018-Feb-23 12:29N 60°09' E 028°32'4 9.1
2018-Feb-23 12:00N 60°08' E 028°24'4 8.0
2018-Feb-23 11:30N 60°07' E 028°16'4 8.3
2018-Feb-23 11:00N 60°08' E 028°08'510.0
2018-Feb-23 10:30N 60°09' E 027°58'510.1
2018-Feb-23 10:00N 60°10' E 027°48'5 9.7
2018-Feb-23 09:30N 60°08' E 027°39'5 9.6
2018-Feb-23 09:00N 60°06' E 027°31'5 9.5
2018-Feb-23 08:30N 60°03' E 027°22'5 9.3
2018-Feb-23 08:00N 60°01' E 027°15'510.2
2018-Feb-23 07:30N 59°58' E 027°06'610.7
2018-Feb-23 06:59N 59°58' E 026°55'5 9.9
2018-Feb-23 06:31N 59°59' E 026°45'5 9.4
2018-Feb-23 06:00N 59°59' E 026°36'510.6
2018-Feb-23 05:30N 59°57' E 026°26'611.1
2018-Feb-23 05:01N 59°56' E 026°15'1310.8
2018-Feb-23 03:49N 59°53' E 025°50'311.3
2018-Feb-23 03:30N 59°52' E 025°43'511.0
2018-Feb-23 03:00N 59°50' E 025°33'711.0
2018-Feb-23 02:21N 59°49' E 025°19'411.1
2018-Feb-23 02:00N 59°48' E 025°12'510.6
2018-Feb-23 01:30N 59°47' E 025°01'510.8
2018-Feb-23 01:01N 59°46' E 024°51'611.4
2018-Feb-23 00:30N 59°44' E 024°40'611.6
2018-Feb-23 00:00N 59°43' E 024°29'612.3
2018-Feb-22 23:30N 59°37' E 024°23'611.9
2018-Feb-22 23:00N 59°32' E 024°27'4 7.6
2018-Feb-22 22:31N 59°29' E 024°32'0 0.2
2018-Feb-22 21:58N 59°29' E 024°32'0 0.0
2018-Feb-22 21:28N 59°29' E 024°32'0 0.1
2018-Feb-22 20:58N 59°29' E 024°32'0 0.0
2018-Feb-22 20:28N 59°29' E 024°32'0 0.0
2018-Feb-22 19:58N 59°29' E 024°32'0 0.0
2018-Feb-22 19:28N 59°29' E 024°32'0 0.0
2018-Feb-22 18:58N 59°29' E 024°32'0 0.0
2018-Feb-22 18:28N 59°29' E 024°32'0 0.0
2018-Feb-22 17:58N 59°29' E 024°32'0 0.1
2018-Feb-22 17:28N 59°29' E 024°32'0 0.1
2018-Feb-22 16:58N 59°29' E 024°32'0 0.0
2018-Feb-22 16:28N 59°29' E 024°32'0 0.0
2018-Feb-22 15:58N 59°29' E 024°32'0 0.1
2018-Feb-22 15:28N 59°29' E 024°32'0 1.0
2018-Feb-22 15:00N 59°29' E 024°32'510.0
2018-Feb-22 14:30N 59°32' E 024°23'510.6
2018-Feb-22 14:00N 59°34' E 024°13'510.6
2018-Feb-22 13:30N 59°36' E 024°04'510.3
2018-Feb-22 13:01N 59°38' E 023°54'510.8
2018-Feb-22 12:30N 59°37' E 023°44'611.1
2018-Feb-22 12:00N 59°35' E 023°33'611.0
2018-Feb-22 11:30N 59°33' E 023°23'510.7
2018-Feb-22 11:00N 59°32' E 023°13'510.8
2018-Feb-22 10:31N 59°30' E 023°03'29510.1
2018-Feb-21 05:13N 55°49' E 016°58'2 9.8
2018-Feb-21 05:00N 55°48' E 016°55'5 9.7
2018-Feb-21 04:30N 55°47' E 016°46'5 9.8
2018-Feb-21 04:00N 55°46' E 016°38'5 9.9
2018-Feb-21 03:30N 55°45' E 016°29'5 9.9
2018-Feb-21 03:00N 55°44' E 016°21'510.0
2018-Feb-21 02:30N 55°43' E 016°12'5 9.7
2018-Feb-21 02:00N 55°41' E 016°04'5 9.7
2018-Feb-21 01:30N 55°40' E 015°55'5 9.8
2018-Feb-21 01:00N 55°39' E 015°47'5 9.8
2018-Feb-21 00:30N 55°38' E 015°38'5 9.9
2018-Feb-21 00:00N 55°37' E 015°30'510.0
2018-Feb-20 23:30N 55°35' E 015°22'5 9.9
2018-Feb-20 23:00N 55°33' E 015°14'5 9.7
2018-Feb-20 22:30N 55°31' E 015°06'5 9.5
2018-Feb-20 22:00N 55°29' E 014°58'5 9.4
2018-Feb-20 21:30N 55°27' E 014°51'5 9.2
2018-Feb-20 21:00N 55°25' E 014°43'5 9.0
2018-Feb-20 20:29N 55°22' E 014°37'5 9.3
2018-Feb-20 20:00N 55°18' E 014°32'5 9.4
2018-Feb-20 19:30N 55°15' E 014°27'5 9.5
2018-Feb-20 18:59N 55°11' E 014°21'4 8.1
2018-Feb-20 18:30N 55°09' E 014°15'5 9.5
2018-Feb-20 17:59N 55°10' E 014°07'7 9.4
2018-Feb-20 17:12N 55°09' E 013°54'8 9.6
2018-Feb-20 16:22N 55°10' E 013°40'18 9.6
2018-Feb-20 14:28N 55°11' E 013°08'5 9.7
2018-Feb-20 14:00N 55°13' E 013°01'5 9.8
2018-Feb-20 13:30N 55°15' E 012°53'5 9.7
2018-Feb-20 13:00N 55°16' E 012°45'5 9.1
2018-Feb-20 12:30N 55°18' E 012°38'5 9.7
2018-Feb-20 12:00N 55°23' E 012°39'5 9.9
2018-Feb-20 11:30N 55°28' E 012°41'4 8.7
2018-Feb-20 11:00N 55°32' E 012°45'5 9.1
2018-Feb-20 10:30N 55°35' E 012°50'4 8.1
2018-Feb-20 10:00N 55°38' E 012°55'511.0
2018-Feb-20 09:30N 55°43' E 012°52'612.9
2018-Feb-20 09:00N 55°49' E 012°47'612.6
2018-Feb-20 08:30N 55°55' E 012°44'612.6
2018-Feb-20 08:00N 56°01' E 012°40'510.0
2018-Feb-20 07:30N 56°05' E 012°35'4 8.4
2018-Feb-20 07:00N 56°08' E 012°29'4 8.2
2018-Feb-20 06:30N 56°10' E 012°23'5 9.0
2018-Feb-20 06:00N 56°13' E 012°16'4 9.0
2018-Feb-20 05:30N 56°15' E 012°10'4 8.8
2018-Feb-20 05:00N 56°18' E 012°03'53 8.6
2018-Feb-19 22:51N 57°08' E 011°36'4 9.1
2018-Feb-19 22:24N 57°12' E 011°34'4 9.0
2018-Feb-19 22:00N 57°15' E 011°31'5 9.1
2018-Feb-19 21:30N 57°19' E 011°28'4 8.8
2018-Feb-19 21:00N 57°24' E 011°25'4 8.5
2018-Feb-19 20:30N 57°28' E 011°22'4 8.3
2018-Feb-19 20:00N 57°31' E 011°17'4 8.2
2018-Feb-19 19:30N 57°34' E 011°12'4 8.1
2018-Feb-19 19:00N 57°36' E 011°06'4 8.2
2018-Feb-19 18:30N 57°39' E 011°00'4 8.1
2018-Feb-19 18:00N 57°42' E 010°55'4 8.3
2018-Feb-19 17:30N 57°45' E 010°49'4 8.0
2018-Feb-19 17:00N 57°47' E 010°43'4 8.2
2018-Feb-19 16:30N 57°47' E 010°35'4 9.0
2018-Feb-19 16:00N 57°47' E 010°27'5 9.3
2018-Feb-19 15:30N 57°46' E 010°18'100 8.7
2018-Feb-19 03:58N 57°01' E 007°32'4 9.5
2018-Feb-19 03:30N 56°57' E 007°29'5 9.4
2018-Feb-19 02:59N 56°52' E 007°26'5 9.4
2018-Feb-19 02:30N 56°48' E 007°22'330 9.5
2018-Feb-17 15:49N 51°59' E 002°48'1010.1
2018-Feb-17 14:49N 51°54' E 003°03'510.1
2018-Feb-17 14:18N 51°50' E 003°09'310.2
2018-Feb-17 13:59N 51°48' E 003°12'5 9.9
2018-Feb-17 13:30N 51°44' E 003°17'611.6
2018-Feb-17 13:00N 51°39' E 003°20'612.0
2018-Feb-17 12:30N 51°34' E 003°25'611.3
2018-Feb-17 12:00N 51°29' E 003°30'5 9.3
2018-Feb-17 11:30N 51°26' E 003°36'4 8.8
2018-Feb-17 11:00N 51°25' E 003°43'611.6
2018-Feb-17 10:30N 51°21' E 003°50'612.2
2018-Feb-17 10:00N 51°25' E 003°57'4 7.8
2018-Feb-17 09:31N 51°23' E 004°03'612.4
2018-Feb-17 09:00N 51°23' E 004°13'4 7.7
2018-Feb-17 08:30N 51°21' E 004°17'0 0.0
2018-Feb-17 08:00N 51°21' E 004°17'0 0.0
2018-Feb-17 07:31N 51°21' E 004°17'1 1.1
2018-Feb-17 07:00N 51°21' E 004°18'0 0.0
2018-Feb-16 19:48N 51°21' E 004°18'0 0.0
2018-Feb-16 19:21N 51°21' E 004°18'0 0.0
2018-Feb-16 16:21N 51°21' E 004°18'0 0.0
2018-Feb-16 10:18N 51°21' E 004°18'0 0.0
2018-Feb-16 09:51N 51°21' E 004°18'0 0.0
2018-Feb-16 09:21N 51°21' E 004°18'0 0.0
2018-Feb-16 08:54N 51°21' E 004°18'0 0.0
2018-Feb-16 03:48N 51°21' E 004°18'0 0.0
2018-Feb-16 03:21N 51°21' E 004°18'0 0.0
2018-Feb-16 01:24N 51°21' E 004°18'0 0.0
2018-Feb-16 00:30N 51°21' E 004°18'0 0.0
2018-Feb-16 00:00N 51°21' E 004°18'  

Dump ship's entire track history